createdAt,value
2023-03-26T00:02:07.319Z,99087.84
2023-03-26T00:07:10.570Z,99089.28
2023-03-26T00:12:14.764Z,99097.13
2023-03-26T00:17:17.494Z,99106.94
2023-03-26T00:22:20.587Z,99108.69
2023-03-26T00:27:25.253Z,99100.31
2023-03-26T00:32:29.579Z,99101.91
2023-03-26T00:37:33.763Z,99104.34
2023-03-26T00:42:38.262Z,99104.38
2023-03-26T00:47:41.200Z,99100.41
2023-03-26T00:52:44.977Z,99094.72
2023-03-26T00:57:49.236Z,99092.78
2023-03-26T01:02:52.008Z,99085.34
2023-03-26T01:07:55.191Z,99090.47
2023-03-26T01:12:59.476Z,99084.66
2023-03-26T01:18:04.868Z,99094.91
2023-03-26T01:23:08.875Z,99094.59
2023-03-26T01:28:13.623Z,99091.34
2023-03-26T01:33:29.768Z,99087.22
2023-03-26T01:38:46.507Z,99086.09
2023-03-26T01:43:55.499Z,99085.66
2023-03-26T01:48:58.290Z,99096.88
2023-03-26T01:54:03.061Z,99097.16
2023-03-26T01:59:25.643Z,99087.81
2023-03-26T02:04:36.244Z,99085.53
2023-03-26T02:09:46.260Z,99086.94
2023-03-26T02:14:51.470Z,99076.56
2023-03-26T02:19:54.246Z,99079.66
2023-03-26T02:24:57.148Z,99087.16
2023-03-26T02:30:02.368Z,99082.31
2023-03-26T02:35:06.811Z,99086.31
2023-03-26T02:40:11.930Z,99080.19
2023-03-26T02:45:19.297Z,99087.97
2023-03-26T02:50:22.076Z,99079.44
2023-03-26T02:55:44.791Z,99065.53
2023-03-26T03:00:50.728Z,99078.16
2023-03-26T03:06:18.784Z,99068.63
2023-03-26T03:11:26.946Z,99066.38
2023-03-26T03:16:32.173Z,99053.03
2023-03-26T03:21:44.344Z,99064.25
2023-03-26T03:26:47.596Z,99053.72
2023-03-26T03:32:12.150Z,99061.94
2023-03-26T03:37:23.498Z,99065.91
2023-03-26T03:42:29.759Z,99058.81
2023-03-26T03:47:37.941Z,99050.88
2023-03-26T03:52:40.795Z,99041.38
2023-03-26T03:57:43.852Z,99061.22
2023-03-26T04:02:54.805Z,99047.16
2023-03-26T04:07:59.969Z,99049.25
2023-03-26T04:13:02.948Z,99050.41
2023-03-26T04:18:37.441Z,99045.84
2023-03-26T04:23:47.439Z,99059.47
2023-03-26T04:29:12.468Z,99055.06
2023-03-26T04:34:23.990Z,99049.09
2023-03-26T04:39:36.229Z,99048.34
2023-03-26T04:45:03.035Z,99054.84
2023-03-26T04:50:11.129Z,99047.75
2023-03-26T04:55:24.970Z,99043.47
2023-03-26T05:00:36.940Z,99044.63
2023-03-26T05:05:41.711Z,99047.56
2023-03-26T05:10:45.620Z,99051.38
2023-03-26T05:15:59.069Z,99054.22
2023-03-26T05:21:29.226Z,99052.63
2023-03-26T05:26:32.245Z,99052.78
2023-03-26T05:31:35.120Z,99057.31
2023-03-26T05:36:40.659Z,99061.00
2023-03-26T05:42:02.553Z,99063.94
2023-03-26T05:47:17.292Z,99070.31
2023-03-26T05:52:21.822Z,99057.84
2023-03-26T05:57:51.316Z,99061.53
2023-03-26T06:03:14.778Z,99058.84
2023-03-26T06:08:43.601Z,99049.03
2023-03-26T06:13:46.972Z,99047.34
2023-03-26T06:18:57.253Z,99044.53
2023-03-26T06:24:28.128Z,99044.41
2023-03-26T06:29:42.663Z,99039.16
2023-03-26T06:35:05.262Z,99033.03
2023-03-26T06:40:10.888Z,99039.00
2023-03-26T06:45:33.957Z,99038.28
2023-03-26T06:50:55.608Z,99039.16
2023-03-26T06:56:28.835Z,99030.22
2023-03-26T07:01:38.941Z,99028.25
2023-03-26T07:07:18.162Z,99027.84
2023-03-26T07:12:42.819Z,99023.91
2023-03-26T07:18:04.453Z,99036.47
2023-03-26T07:23:11.641Z,99021.38
2023-03-26T07:28:41.415Z,99007.91
2023-03-26T07:34:32.432Z,98993.00
2023-03-26T07:39:57.672Z,98991.50
2023-03-26T07:45:27.723Z,98993.44
2023-03-26T07:50:44.393Z,98981.97
2023-03-26T07:56:03.800Z,98984.00
2023-03-26T08:01:28.047Z,98970.25
2023-03-26T08:06:36.367Z,98966.28
2023-03-26T08:12:17.507Z,98971.25
2023-03-26T08:17:31.225Z,98974.50
2023-03-26T08:22:40.971Z,98961.78
2023-03-26T08:27:49.596Z,98954.25
2023-03-26T08:32:57.401Z,98955.69
2023-03-26T08:38:00.254Z,98962.91
2023-03-26T08:43:41.202Z,98960.06
2023-03-26T08:49:26.725Z,98947.34
2023-03-26T08:55:23.844Z,98949.88
2023-03-26T09:00:40.840Z,98938.84
2023-03-26T09:06:07.429Z,98927.78
2023-03-26T09:11:36.519Z,98920.28
2023-03-26T09:17:23.935Z,98920.13
2023-03-26T09:23:00.285Z,98924.34
2023-03-26T09:28:33.507Z,98918.00
2023-03-26T09:34:00.063Z,98915.16
2023-03-26T09:39:10.849Z,98914.31
2023-03-26T09:44:49.710Z,98915.31
2023-03-26T09:50:05.294Z,98916.28
2023-03-26T09:55:40.145Z,98916.44
2023-03-26T10:00:49.187Z,98910.19
2023-03-26T10:06:19.808Z,98899.16
2023-03-26T10:11:33.642Z,98890.63
2023-03-26T10:16:51.856Z,98871.34
2023-03-26T10:22:09.257Z,98873.03
2023-03-26T10:27:28.198Z,98859.13
2023-03-26T10:32:37.865Z,98849.94
2023-03-26T10:37:58.044Z,98841.69
2023-03-26T10:43:19.712Z,98844.13
2023-03-26T10:48:46.795Z,98824.41
2023-03-26T10:53:55.110Z,98826.53
2023-03-26T10:58:58.281Z,98823.09
2023-03-26T11:04:16.214Z,98823.09
2023-03-26T11:09:30.642Z,98822.09
2023-03-26T11:14:44.098Z,98834.19
2023-03-26T11:19:53.277Z,98837.06
2023-03-26T11:25:31.036Z,98837.25
2023-03-26T11:30:41.312Z,98837.75
2023-03-26T11:35:48.278Z,98819.56
2023-03-26T11:40:55.906Z,98813.00
2023-03-26T11:46:21.431Z,98811.31
2023-03-26T11:51:28.157Z,98812.19
2023-03-26T11:56:34.928Z,98804.59
2023-03-26T12:01:50.292Z,98803.63
2023-03-26T12:06:57.571Z,98809.81
2023-03-26T12:12:04.949Z,98793.72
2023-03-26T12:17:14.218Z,98783.97
2023-03-26T12:22:30.556Z,98772.91
2023-03-26T12:27:37.927Z,98773.63
2023-03-26T12:32:46.689Z,98772.19
2023-03-26T12:37:49.886Z,98772.06
2023-03-26T12:44:46.871Z,98766.34
2023-03-26T12:48:19.827Z,98763.81
2023-03-26T12:53:57.803Z,98760.13
2023-03-26T12:59:23.349Z,98764.50
2023-03-26T13:05:04.928Z,98767.09
2023-03-26T13:10:37.261Z,98763.41
2023-03-26T13:15:46.912Z,98772.31
2023-03-26T13:21:00.012Z,98764.09
2023-03-26T13:26:16.631Z,98762.13
2023-03-26T13:31:28.939Z,98759.56
2023-03-26T13:36:46.667Z,98754.31
2023-03-26T13:42:08.165Z,98761.53
2023-03-26T13:47:18.308Z,98752.78
2023-03-26T13:52:25.895Z,98760.00
2023-03-26T13:57:33.522Z,98757.16
2023-03-26T14:02:41.578Z,98753.47
2023-03-26T14:07:50.014Z,98753.47
2023-03-26T14:12:59.188Z,98745.53
2023-03-26T14:18:11.206Z,98752.63
2023-03-26T14:23:31.660Z,98754.47
2023-03-26T14:29:04.733Z,98752.63
2023-03-26T14:34:29.221Z,98749.09
2023-03-26T14:39:45.979Z,98740.16
2023-03-26T14:45:26.645Z,98742.69
2023-03-26T14:51:02.322Z,98734.78
2023-03-26T14:56:28.133Z,98728.25
2023-03-26T15:02:02.017Z,98724.84
2023-03-26T15:08:07.220Z,98738.31
2023-03-26T15:13:46.724Z,98726.69
2023-03-26T15:19:14.489Z,98731.94
2023-03-26T15:24:39.189Z,98726.41
2023-03-26T15:30:13.481Z,98732.94
2023-03-26T15:35:36.739Z,98732.94
2023-03-26T15:40:54.512Z,98732.22
2023-03-26T15:46:32.162Z,98733.78
2023-03-26T15:51:46.364Z,98733.63
2023-03-26T15:57:01.759Z,98728.25
2023-03-26T16:02:22.628Z,98723.00
2023-03-26T16:07:38.913Z,98722.00
2023-03-26T16:12:56.692Z,98722.16
2023-03-26T16:18:22.519Z,98720.47
2023-03-26T16:23:28.570Z,98715.38
2023-03-26T16:28:37.488Z,98724.28
2023-03-26T16:33:49.065Z,98718.38
2023-03-26T16:39:03.704Z,98719.63
2023-03-26T16:44:19.284Z,98710.84
2023-03-26T16:49:35.979Z,98711.00
2023-03-26T17:00:07.678Z,98702.38
2023-03-26T17:05:21.290Z,98708.88
2023-03-26T17:10:33.742Z,98708.88
2023-03-26T17:15:47.985Z,98706.19
2023-03-26T17:21:01.459Z,98709.88
2023-03-26T17:26:13.720Z,98724.44
2023-03-26T17:31:36.879Z,98722.63
2023-03-26T17:36:46.572Z,98718.38
2023-03-26T17:42:04.447Z,98738.91
2023-03-26T17:47:19.896Z,98733.69
2023-03-26T17:52:27.604Z,98738.22
2023-03-26T17:57:41.853Z,98733.81
2023-03-26T18:02:50.949Z,98734.81
2023-03-26T18:08:21.272Z,98743.16
2023-03-26T18:13:46.935Z,98743.03
2023-03-26T18:18:56.968Z,98742.31
2023-03-26T18:24:00.589Z,98735.78
2023-03-26T18:29:21.675Z,98745.56
2023-03-26T18:34:27.113Z,98743.13
2023-03-26T18:39:30.049Z,98740.59
2023-03-26T18:44:35.973Z,98738.00
2023-03-26T18:49:42.957Z,98741.00
2023-03-26T18:54:49.684Z,98732.19
2023-03-26T18:59:54.118Z,98726.19
2023-03-26T19:04:58.365Z,98719.22
2023-03-26T19:10:01.788Z,98711.41
2023-03-26T19:15:07.656Z,98713.53
2023-03-26T19:20:19.487Z,98716.50
2023-03-26T19:25:26.009Z,98719.59
2023-03-26T19:30:32.757Z,98713.63
2023-03-26T19:35:40.408Z,98715.00
2023-03-26T19:40:45.001Z,98715.56
2023-03-26T19:45:59.192Z,98706.00
2023-03-26T19:51:07.534Z,98702.03
2023-03-26T19:56:18.595Z,98700.34
2023-03-26T20:01:25.004Z,98694.88
2023-03-26T20:06:42.632Z,98693.41
2023-03-26T20:11:48.124Z,98695.81
2023-03-26T20:16:51.424Z,98694.66
2023-03-26T20:21:57.019Z,98683.56
2023-03-26T20:27:00.611Z,98693.13
2023-03-26T20:32:06.354Z,98693.91
2023-03-26T20:37:10.558Z,98692.56
2023-03-26T20:42:15.791Z,98689.44
2023-03-26T20:47:18.908Z,98693.44
2023-03-26T20:52:25.501Z,98686.97
2023-03-26T20:57:28.333Z,98689.66
2023-03-26T21:02:31.250Z,98694.19
2023-03-26T21:07:35.581Z,98685.41
2023-03-26T21:12:45.032Z,98691.47
2023-03-26T21:17:48.541Z,98694.69
2023-03-26T21:23:03.944Z,98697.75
2023-03-26T21:28:29.137Z,98695.72
2023-03-26T21:33:38.521Z,98702.09
2023-03-26T21:38:44.593Z,98713.50
2023-03-26T21:43:47.321Z,98722.53
2023-03-26T21:48:50.658Z,98716.69
2023-03-26T21:53:55.494Z,98718.06
2023-03-26T21:59:05.939Z,98728.25
2023-03-26T22:04:14.577Z,98729.00
2023-03-26T22:09:26.371Z,98732.53
2023-03-26T22:14:37.045Z,98742.03
2023-03-26T22:19:39.775Z,98746.44
2023-03-26T22:24:43.922Z,98741.03
2023-03-26T22:29:47.291Z,98744.56
2023-03-26T22:34:52.012Z,98749.28
2023-03-26T22:39:56.077Z,98760.25
2023-03-26T22:44:58.789Z,98774.88
2023-03-26T22:50:01.994Z,98775.22
2023-03-26T22:55:06.771Z,98784.59
2023-03-26T23:00:16.192Z,98798.72
2023-03-26T23:05:19.091Z,98796.78
2023-03-26T23:10:23.977Z,98813.44
2023-03-26T23:15:26.851Z,98824.97
2023-03-26T23:20:30.786Z,98847.97
2023-03-26T23:25:35.076Z,98862.88
2023-03-26T23:30:37.794Z,98874.28
2023-03-26T23:35:44.032Z,98882.81
2023-03-26T23:40:57.194Z,98888.78
2023-03-26T23:46:00.569Z,98909.69
2023-03-26T23:51:04.352Z,98920.91
2023-03-26T23:56:13.514Z,98927.56
